Bei Facebook empfehlenBei Twitter postenGoogle plusPinterest

Das Wetter im Erzgebirge am 17.11.2015

Wetter und Klima am 17.11.2015 Holzhau im Erzgebirge (630m ü.NN)
Letzte gemessene Temperatur und Uhrzeit der Messung23:45:00 Uhr11.00 °C
Temperatur (Maximum / Höchstwert) und Uhrzeit der Messung23:45:00 Uhr11.00 °C
Temperatur (Minimum / Tiefstwert) und Uhrzeit der Messung00:30:006.90 °C
Errechneter Absolutwert der Temperaturschwankungen zwischen Tmin und Tmax des Tages4.10 K
Errechnete Tagesmitteltemperatur9.01146 °C
Gesamt - Niederschlag des Tages (in flüssiger Form)1.56 Liter / m²
Luftdruck (Maximum / Höchstwert) und Zeitpunkt der Messung00:30:00 Uhr1011.30 hPa
Luftdruck (Minimum / Tiefstwert) und Zeitpunkt der Messung23:45:00 Uhr1004.50 hPa
Errechneter Absolutwert der Luftdruckschwankungen des Tages6.80 hPa
Höchste gemessene Windgeschwindigkeit und Uhrzeit der Messung20:45:00 Uhr183.60 km/h
Errechnete Windhäufigkeit in Relation zu den Messwerten des Tages54.16667 %
Niedrigste Windkühle (Windchill) und Zeitpunkt der Messung20:45:00 Uhr2.70 °C
Taupunkt (Maximum / Höchstwert) und Uhrzeit der Messung13:30:00 Uhr9.70 °C
Taupunkt (Minimum / Tiefstwert) und Uhrzeit der Messung00:30:006.00 °C
Anzahl der automatisch eingelesenen Messwerte 96

Detaillierte Wetter- und Klima- Messwerte für den 17.11.2015 in Holzhau im Erzgebirge (630m ü.NN)
ZeitTemperaturLuftdruckRel. LuftfeuchteWindWindrichtungWindchillTaupunktNiederschlag l/m²
23:45:0011.00 °C1004.50 hPa90.00 %9.40 °C1.56
23:30:0011.00 °C1004.90 hPa90.00 %9.40 °C1.56
23:15:0010.80 °C1005.00 hPa90.00 %9.72 km/hSW9.60 °C9.20 °C1.56
23:00:0010.50 °C1005.00 hPa90.00 %6.12 km/hWSW10.00 °C8.90 °C1.56
22:45:0010.30 °C1005.30 hPa90.00 %1.80 km/hSW10.30 °C8.70 °C1.56
22:30:0010.30 °C1005.30 hPa90.00 %8.70 °C1.56
22:15:0010.20 °C1005.80 hPa90.00 %1.44 km/hSW10.20 °C8.60 °C1.56
22:00:0010.10 °C1006.00 hPa90.00 %9.72 km/hWSW8.80 °C8.50 °C1.56
21:45:0010.10 °C1006.00 hPa90.00 %11.52 km/hWSW8.50 °C8.50 °C1.56
21:30:0010.10 °C1006.30 hPa90.00 %10.08 km/hSW8.70 °C8.50 °C1.56
21:15:0010.40 °C1006.40 hPa90.00 %8.80 °C1.56
21:00:0010.30 °C1006.80 hPa90.00 %12.24 km/hSW8.60 °C8.70 °C1.56
20:45:0010.30 °C1006.90 hPa90.00 %183.60 km/hWSW2.70 °C8.70 °C1.56
20:30:0010.30 °C1007.00 hPa91.00 %13.68 km/hSW8.40 °C8.90 °C1.56
20:15:0010.40 °C1007.00 hPa91.00 %3.60 km/hW10.40 °C9.00 °C1.56
20:00:0010.40 °C1007.20 hPa91.00 %5.04 km/hWSW10.20 °C9.00 °C1.56
19:45:0010.50 °C1007.40 hPa91.00 %3.60 km/hSSW10.50 °C9.10 °C1.56
19:30:0010.50 °C1007.20 hPa91.00 %9.10 °C1.56
19:15:0010.50 °C1007.20 hPa91.00 %9.10 °C1.56
19:00:0010.50 °C1007.20 hPa91.00 %13.68 km/hSW8.70 °C9.10 °C1.56
18:45:0010.40 °C1007.10 hPa91.00 %17.64 km/hNNW8.10 °C9.00 °C1.56
18:30:0010.30 °C1007.20 hPa91.00 %7.56 km/hWSW9.50 °C8.90 °C1.56
18:15:0010.20 °C1007.00 hPa91.00 %8.28 km/hSW9.20 °C8.80 °C1.56
18:00:0010.20 °C1007.10 hPa90.00 %8.60 °C1.56
17:45:0010.20 °C1007.10 hPa90.00 %8.64 km/hSW9.10 °C8.60 °C1.56
17:30:0010.00 °C1007.20 hPa90.00 %14.76 km/hW7.90 °C8.40 °C1.56
17:15:009.90 °C1007.30 hPa90.00 %5.76 km/hNW9.40 °C8.30 °C1.56
17:00:009.90 °C1007.20 hPa90.00 %7.56 km/hW9.00 °C8.30 °C1.56
16:45:0010.00 °C1007.40 hPa90.00 %3.24 km/hWNW10.00 °C8.40 °C1.56
16:30:0010.10 °C1007.50 hPa90.00 %1.80 km/hWNW10.10 °C8.50 °C1.56
16:15:0010.10 °C1007.30 hPa90.00 %4.32 km/hWNW10.10 °C8.50 °C1.56
16:00:0010.30 °C1007.20 hPa90.00 %4.68 km/hWNW10.30 °C8.70 °C1.56
15:45:0010.30 °C1007.30 hPa90.00 %3.24 km/hSW10.30 °C8.70 °C1.56
15:30:0010.10 °C1007.50 hPa91.00 %10.44 km/hWNW8.70 °C8.70 °C1.56
15:15:0010.30 °C1007.30 hPa91.00 %12.96 km/hSW8.50 °C8.90 °C1.56
15:00:0010.30 °C1007.20 hPa91.00 %8.90 °C1.56
14:45:0010.40 °C1007.20 hPa91.00 %9.00 °C1.56
14:30:0010.40 °C1007.10 hPa92.00 %10.08 km/hW9.10 °C9.20 °C1.56
14:15:0010.50 °C1007.20 hPa92.00 %4.32 km/hWSW10.50 °C9.30 °C1.56
14:00:0010.50 °C1007.30 hPa91.00 %14.04 km/hW8.60 °C9.10 °C1.56
13:45:0010.70 °C1007.20 hPa91.00 %14.76 km/hWSW8.80 °C9.30 °C1.56
13:30:0010.90 °C1007.30 hPa92.00 %15.12 km/hWNW9.00 °C9.70 °C1.56
13:15:0010.80 °C1007.30 hPa93.00 %12.96 km/hW9.20 °C9.70 °C1.56
13:00:0010.50 °C1007.20 hPa93.00 %1.44 km/hW10.50 °C9.40 °C1.56
12:45:0010.10 °C1007.20 hPa94.00 %9.72 km/hSSW8.80 °C9.20 °C1.56
12:30:009.90 °C1007.10 hPa94.00 %12.24 km/hW8.20 °C9.00 °C1.56
12:15:009.80 °C1007.00 hPa94.00 %8.90 °C1.56
12:00:009.50 °C1007.10 hPa94.00 %9.36 km/hSW8.10 °C8.60 °C1.56
11:45:009.30 °C1007.20 hPa95.00 %12.96 km/hSSW7.30 °C8.50 °C1.56
11:30:009.20 °C1007.50 hPa95.00 %8.40 °C1.56
11:15:008.90 °C1007.80 hPa95.00 %5.04 km/hW8.50 °C8.10 °C1.56
11:00:008.90 °C1007.70 hPa95.00 %10.44 km/hSW7.20 °C8.10 °C1.56
10:45:008.70 °C1007.70 hPa95.00 %5.04 km/hSW8.30 °C7.90 °C1.56
10:30:008.60 °C1007.70 hPa95.00 %7.80 °C1.56
10:15:008.40 °C1007.80 hPa95.00 %9.00 km/hSSW6.90 °C7.60 °C1.56
10:00:008.30 °C1007.80 hPa95.00 %7.50 °C1.56
09:45:008.30 °C1007.70 hPa95.00 %7.50 °C1.56
09:30:008.10 °C1007.90 hPa95.00 %7.20 km/hWSW7.00 °C7.30 °C1.56
09:15:008.10 °C1008.10 hPa95.00 %3.96 km/hSW8.10 °C7.30 °C1.56
09:00:007.90 °C1008.30 hPa95.00 %7.56 km/hSW6.60 °C7.10 °C1.56
08:45:007.90 °C1008.30 hPa95.00 %2.52 km/hWSW7.90 °C7.10 °C1.56
08:30:007.90 °C1008.20 hPa95.00 %7.10 °C1.56
08:15:007.90 °C1008.10 hPa95.00 %7.10 °C1.56
08:00:007.90 °C1008.10 hPa95.00 %8.28 km/hSSW6.50 °C7.10 °C1.56
07:45:008.10 °C1007.80 hPa95.00 %9.36 km/hSSW6.50 °C7.30 °C1.56
07:30:008.10 °C1008.20 hPa95.00 %7.30 °C1.56
07:15:008.20 °C1008.40 hPa95.00 %7.40 °C1.56
07:00:008.00 °C1008.50 hPa95.00 %5.04 km/hSW7.50 °C7.20 °C1.56
06:45:007.80 °C1008.10 hPa95.00 %3.24 km/hSW7.80 °C7.10 °C1.56
06:30:007.60 °C1008.10 hPa95.00 %6.90 °C1.56
06:15:007.60 °C1008.40 hPa95.00 %1.80 km/hSSW7.60 °C6.90 °C1.56
06:00:007.50 °C1009.00 hPa95.00 %6.80 °C1.56
05:45:007.40 °C1009.40 hPa95.00 %6.70 °C1.04
05:30:007.30 °C1008.90 hPa95.00 %6.60 °C1.04
05:15:007.30 °C1009.40 hPa95.00 %6.60 °C1.04
05:00:007.30 °C1009.40 hPa95.00 %6.60 °C1.04
04:45:007.20 °C1009.40 hPa94.00 %6.30 °C1.04
04:30:007.20 °C1009.20 hPa94.00 %6.30 °C1.04
04:15:007.20 °C1009.60 hPa94.00 %6.30 °C1.04
04:00:007.20 °C1009.60 hPa94.00 %6.30 °C1.04
03:45:007.20 °C1009.70 hPa94.00 %6.30 °C1.04
03:30:007.20 °C1009.90 hPa94.00 %6.30 °C1.04
03:15:007.20 °C1010.30 hPa94.00 %6.30 °C1.04
03:00:007.20 °C1010.50 hPa94.00 %6.30 °C0.52
02:45:007.20 °C1010.40 hPa94.00 %6.30 °C0.52
02:30:007.20 °C1010.60 hPa94.00 %6.30 °C0.52
02:15:007.30 °C1010.70 hPa94.00 %6.40 °C0.52
02:00:007.40 °C1010.80 hPa94.00 %6.50 °C 
01:45:007.40 °C1010.80 hPa94.00 %6.50 °C 
01:30:007.30 °C1010.80 hPa94.00 %6.40 °C 
01:15:007.20 °C1010.90 hPa94.00 %6.30 °C 
01:00:007.10 °C1011.10 hPa94.00 %6.20 °C 
00:45:007.10 °C1011.00 hPa94.00 %6.20 °C 
00:30:006.90 °C1011.30 hPa94.00 %6.00 °C 
00:15:006.90 °C1011.10 hPa94.00 %6.00 °C 
00:00:006.90 °C1011.10 hPa94.00 %6.00 °C 

Permanenter Link zu dieser Seite: Wetter im Erzgebirge am 17.11.2015
Performance-Info: Die Erstellung der Seite / Statistik(en) / Tabelle(n) erforderte 5 Datenbankserver-Abfrage(n) und dauerte 104 Millisekunden. (Dieser Messwert ist von der Gesamt-Auslastung des Servers abhängig.)
Erzgebirge - Wetter | Erzgebirge - Wetter (Mobilgeräte) | Komplette Klimadatenbank